sensor_id;sensor_type;location;lat;lon;timestamp;P1;durP1;ratioP1;P2;durP2;ratioP2
32505;SDS011;18955;51.224;8.482;2022-10-15T00:00:00;3.67;;;2.00;;
32505;SDS011;18955;51.224;8.482;2022-10-15T00:02:26;3.70;;;2.78;;
32505;SDS011;18955;51.224;8.482;2022-10-15T00:04:52;2.17;;;1.98;;
32505;SDS011;18955;51.224;8.482;2022-10-15T00:07:18;9.63;;;1.85;;
32505;SDS011;18955;51.224;8.482;2022-10-15T00:09:44;2.92;;;1.92;;
32505;SDS011;18955;51.224;8.482;2022-10-15T00:12:10;3.72;;;1.88;;
32505;SDS011;18955;51.224;8.482;2022-10-15T00:14:37;5.15;;;1.98;;
32505;SDS011;18955;51.224;8.482;2022-10-15T00:17:03;5.25;;;1.90;;
32505;SDS011;18955;51.224;8.482;2022-10-15T00:19:29;2.38;;;1.98;;
32505;SDS011;18955;51.224;8.482;2022-10-15T00:21:55;1.63;;;1.52;;
32505;SDS011;18955;51.224;8.482;2022-10-15T00:24:22;3.47;;;1.40;;
32505;SDS011;18955;51.224;8.482;2022-10-15T00:26:48;3.50;;;2.00;;
32505;SDS011;18955;51.224;8.482;2022-10-15T00:29:14;4.32;;;2.00;;
32505;SDS011;18955;51.224;8.482;2022-10-15T00:31:40;2.28;;;1.77;;
32505;SDS011;18955;51.224;8.482;2022-10-15T00:34:08;11.93;;;2.13;;
32505;SDS011;18955;51.224;8.482;2022-10-15T00:36:35;4.43;;;2.30;;
32505;SDS011;18955;51.224;8.482;2022-10-15T00:39:02;3.53;;;2.08;;
32505;SDS011;18955;51.224;8.482;2022-10-15T00:41:32;2.75;;;2.00;;
32505;SDS011;18955;51.224;8.482;2022-10-15T00:46:47;4.25;;;2.20;;
32505;SDS011;18955;51.224;8.482;2022-10-15T00:49:17;1.77;;;1.58;;
32505;SDS011;18955;51.224;8.482;2022-10-15T00:51:45;2.38;;;1.70;;
32505;SDS011;18955;51.224;8.482;2022-10-15T00:54:17;3.45;;;1.30;;
32505;SDS011;18955;51.224;8.482;2022-10-15T00:56:45;4.05;;;2.00;;
32505;SDS011;18955;51.224;8.482;2022-10-15T00:59:13;3.58;;;2.10;;
32505;SDS011;18955;51.224;8.482;2022-10-15T01:01:41;4.35;;;1.92;;
32505;SDS011;18955;51.224;8.482;2022-10-15T01:04:08;2.17;;;1.88;;
32505;SDS011;18955;51.224;8.482;2022-10-15T01:06:36;2.70;;;2.50;;
32505;SDS011;18955;51.224;8.482;2022-10-15T01:09:03;7.00;;;2.25;;
32505;SDS011;18955;51.224;8.482;2022-10-15T01:14:34;2.67;;;2.10;;
32505;SDS011;18955;51.224;8.482;2022-10-15T01:29:04;2.42;;;2.10;;
32505;SDS011;18955;51.224;8.482;2022-10-15T01:37:06;2.35;;;2.13;;
32505;SDS011;18955;51.224;8.482;2022-10-15T01:42:55;2.85;;;2.50;;
32505;SDS011;18955;51.224;8.482;2022-10-15T01:45:27;3.72;;;1.90;;
32505;SDS011;18955;51.224;8.482;2022-10-15T01:50:55;11.20;;;3.15;;
32505;SDS011;18955;51.224;8.482;2022-10-15T01:53:25;2.83;;;2.22;;
32505;SDS011;18955;51.224;8.482;2022-10-15T01:55:54;4.68;;;3.13;;
32505;SDS011;18955;51.224;8.482;2022-10-15T01:58:23;5.30;;;2.70;;
32505;SDS011;18955;51.224;8.482;2022-10-15T02:00:50;2.85;;;2.55;;
32505;SDS011;18955;51.224;8.482;2022-10-15T02:03:19;5.70;;;2.92;;
32505;SDS011;18955;51.224;8.482;2022-10-15T02:08:35;2.55;;;1.77;;
32505;SDS011;18955;51.224;8.482;2022-10-15T02:11:12;5.13;;;2.10;;
32505;SDS011;18955;51.224;8.482;2022-10-15T02:16:30;6.22;;;2.20;;
32505;SDS011;18955;51.224;8.482;2022-10-15T02:19:14;4.05;;;2.63;;
32505;SDS011;18955;51.224;8.482;2022-10-15T02:21:47;5.05;;;2.50;;
32505;SDS011;18955;51.224;8.482;2022-10-15T02:24:20;5.03;;;2.50;;
32505;SDS011;18955;51.224;8.482;2022-10-15T02:26:50;5.45;;;2.42;;
32505;SDS011;18955;51.224;8.482;2022-10-15T02:29:20;5.40;;;2.83;;
32505;SDS011;18955;51.224;8.482;2022-10-15T02:31:50;3.00;;;2.55;;
32505;SDS011;18955;51.224;8.482;2022-10-15T02:34:19;5.35;;;2.90;;
32505;SDS011;18955;51.224;8.482;2022-10-15T02:36:47;3.70;;;2.20;;
32505;SDS011;18955;51.224;8.482;2022-10-15T02:39:16;3.97;;;2.53;;
32505;SDS011;18955;51.224;8.482;2022-10-15T02:41:45;5.03;;;2.22;;
32505;SDS011;18955;51.224;8.482;2022-10-15T02:44:13;4.70;;;2.72;;
32505;SDS011;18955;51.224;8.482;2022-10-15T02:46:39;3.53;;;2.75;;
32505;SDS011;18955;51.224;8.482;2022-10-15T02:49:06;2.85;;;2.63;;
32505;SDS011;18955;51.224;8.482;2022-10-15T02:51:33;6.18;;;3.03;;
32505;SDS011;18955;51.224;8.482;2022-10-15T02:54:00;2.33;;;1.92;;
32505;SDS011;18955;51.224;8.482;2022-10-15T02:56:28;3.10;;;2.53;;
32505;SDS011;18955;51.224;8.482;2022-10-15T02:58:55;4.72;;;2.58;;
32505;SDS011;18955;51.224;8.482;2022-10-15T03:01:21;4.82;;;2.63;;
32505;SDS011;18955;51.224;8.482;2022-10-15T03:03:47;4.47;;;2.15;;
32505;SDS011;18955;51.224;8.482;2022-10-15T03:06:14;3.10;;;2.03;;
32505;SDS011;18955;51.224;8.482;2022-10-15T03:11:08;5.53;;;1.73;;
32505;SDS011;18955;51.224;8.482;2022-10-15T03:13:38;1.95;;;1.77;;
32505;SDS011;18955;51.224;8.482;2022-10-15T03:16:09;2.70;;;2.50;;
32505;SDS011;18955;51.224;8.482;2022-10-15T03:18:38;5.68;;;2.45;;
32505;SDS011;18955;51.224;8.482;2022-10-15T03:21:04;9.02;;;2.88;;
32505;SDS011;18955;51.224;8.482;2022-10-15T03:26:05;5.97;;;3.15;;
32505;SDS011;18955;51.224;8.482;2022-10-15T03:28:32;3.15;;;2.80;;
32505;SDS011;18955;51.224;8.482;2022-10-15T03:30:59;4.65;;;2.00;;
32505;SDS011;18955;51.224;8.482;2022-10-15T03:35:54;6.22;;;2.65;;
32505;SDS011;18955;51.224;8.482;2022-10-15T03:38:22;5.20;;;2.00;;
32505;SDS011;18955;51.224;8.482;2022-10-15T03:40:50;4.82;;;2.40;;
32505;SDS011;18955;51.224;8.482;2022-10-15T03:43:39;2.20;;;1.98;;
32505;SDS011;18955;51.224;8.482;2022-10-15T03:46:05;2.05;;;1.80;;
32505;SDS011;18955;51.224;8.482;2022-10-15T03:48:36;5.40;;;2.45;;
32505;SDS011;18955;51.224;8.482;2022-10-15T03:51:02;2.40;;;1.65;;
32505;SDS011;18955;51.224;8.482;2022-10-15T03:53:29;4.75;;;1.23;;
32505;SDS011;18955;51.224;8.482;2022-10-15T03:56:01;1.35;;;1.25;;
32505;SDS011;18955;51.224;8.482;2022-10-15T03:58:28;1.55;;;1.35;;
32505;SDS011;18955;51.224;8.482;2022-10-15T04:00:58;3.47;;;1.45;;
32505;SDS011;18955;51.224;8.482;2022-10-15T04:03:24;5.72;;;2.63;;
32505;SDS011;18955;51.224;8.482;2022-10-15T04:05:51;3.17;;;1.85;;
32505;SDS011;18955;51.224;8.482;2022-10-15T04:08:20;6.82;;;2.20;;
32505;SDS011;18955;51.224;8.482;2022-10-15T04:10:46;3.08;;;1.88;;
32505;SDS011;18955;51.224;8.482;2022-10-15T04:13:12;4.43;;;1.40;;
32505;SDS011;18955;51.224;8.482;2022-10-15T04:15:41;1.42;;;1.33;;
32505;SDS011;18955;51.224;8.482;2022-10-15T04:18:09;6.00;;;1.60;;
32505;SDS011;18955;51.224;8.482;2022-10-15T04:23:15;2.78;;;1.77;;
32505;SDS011;18955;51.224;8.482;2022-10-15T04:25:58;1.30;;;1.20;;
32505;SDS011;18955;51.224;8.482;2022-10-15T04:28:26;2.20;;;1.50;;
32505;SDS011;18955;51.224;8.482;2022-10-15T04:30:56;1.58;;;1.23;;
32505;SDS011;18955;51.224;8.482;2022-10-15T04:33:23;2.30;;;1.00;;
32505;SDS011;18955;51.224;8.482;2022-10-15T04:36:12;1.40;;;1.30;;
32505;SDS011;18955;51.224;8.482;2022-10-15T04:38:48;0.93;;;0.93;;
32505;SDS011;18955;51.224;8.482;2022-10-15T04:41:21;1.05;;;0.93;;
32505;SDS011;18955;51.224;8.482;2022-10-15T04:44:01;1.55;;;1.45;;
32505;SDS011;18955;51.224;8.482;2022-10-15T04:46:30;3.40;;;1.23;;
32505;SDS011;18955;51.224;8.482;2022-10-15T04:49:00;2.55;;;1.02;;
32505;SDS011;18955;51.224;8.482;2022-10-15T04:51:27;3.47;;;1.20;;
32505;SDS011;18955;51.224;8.482;2022-10-15T04:54:10;1.35;;;1.05;;
32505;SDS011;18955;51.224;8.482;2022-10-15T04:56:51;2.58;;;2.38;;
32505;SDS011;18955;51.224;8.482;2022-10-15T04:59:17;4.25;;;2.35;;
32505;SDS011;18955;51.224;8.482;2022-10-15T05:02:02;5.07;;;2.50;;
32505;SDS011;18955;51.224;8.482;2022-10-15T05:04:29;5.18;;;3.15;;
32505;SDS011;18955;51.224;8.482;2022-10-15T05:06:55;2.70;;;2.50;;
32505;SDS011;18955;51.224;8.482;2022-10-15T05:09:22;3.53;;;3.22;;
32505;SDS011;18955;51.224;8.482;2022-10-15T05:11:49;4.80;;;4.15;;
32505;SDS011;18955;51.224;8.482;2022-10-15T05:14:16;5.32;;;3.13;;
32505;SDS011;18955;51.224;8.482;2022-10-15T05:16:50;5.65;;;5.13;;
32505;SDS011;18955;51.224;8.482;2022-10-15T05:19:17;8.20;;;4.55;;
32505;SDS011;18955;51.224;8.482;2022-10-15T05:21:43;8.13;;;5.57;;
32505;SDS011;18955;51.224;8.482;2022-10-15T05:24:20;7.22;;;5.30;;
32505;SDS011;18955;51.224;8.482;2022-10-15T05:26:52;8.63;;;5.47;;
32505;SDS011;18955;51.224;8.482;2022-10-15T05:29:19;10.15;;;5.85;;
32505;SDS011;18955;51.224;8.482;2022-10-15T05:31:48;8.63;;;5.28;;
32505;SDS011;18955;51.224;8.482;2022-10-15T05:34:19;6.45;;;5.35;;
32505;SDS011;18955;51.224;8.482;2022-10-15T05:36:51;6.68;;;5.30;;
32505;SDS011;18955;51.224;8.482;2022-10-15T05:39:17;8.68;;;6.53;;
32505;SDS011;18955;51.224;8.482;2022-10-15T09:51:26;5.70;;;2.67;;
32505;SDS011;18955;51.224;8.482;2022-10-15T09:57:00;1.83;;;1.67;;
32505;SDS011;18955;51.224;8.482;2022-10-15T09:59:26;6.30;;;2.10;;
32505;SDS011;18955;51.224;8.482;2022-10-15T10:04:25;1.50;;;1.40;;
32505;SDS011;18955;51.224;8.482;2022-10-15T10:06:56;5.28;;;1.52;;
32505;SDS011;18955;51.224;8.482;2022-10-15T10:09:29;1.45;;;1.30;;
32505;SDS011;18955;51.224;8.482;2022-10-15T10:12:19;3.20;;;1.48;;
32505;SDS011;18955;51.224;8.482;2022-10-15T10:17:26;1.17;;;1.08;;
32505;SDS011;18955;51.224;8.482;2022-10-15T10:20:15;3.13;;;1.13;;
32505;SDS011;18955;51.224;8.482;2022-10-15T10:22:47;1.45;;;1.05;;
32505;SDS011;18955;51.224;8.482;2022-10-15T10:25:26;2.35;;;0.80;;
32505;SDS011;18955;51.224;8.482;2022-10-15T10:33:18;1.60;;;0.90;;
32505;SDS011;18955;51.224;8.482;2022-10-15T10:35:53;0.90;;;0.90;;
32505;SDS011;18955;51.224;8.482;2022-10-15T10:38:22;0.90;;;0.90;;
32505;SDS011;18955;51.224;8.482;2022-10-15T10:40:51;0.77;;;0.77;;
32505;SDS011;18955;51.224;8.482;2022-10-15T10:43:24;0.70;;;0.70;;
32505;SDS011;18955;51.224;8.482;2022-10-15T10:45:56;3.63;;;0.82;;
32505;SDS011;18955;51.224;8.482;2022-10-15T10:48:43;1.13;;;0.63;;
32505;SDS011;18955;51.224;8.482;2022-10-15T10:51:12;1.10;;;0.88;;
32505;SDS011;18955;51.224;8.482;2022-10-15T10:53:50;3.08;;;1.10;;
32505;SDS011;18955;51.224;8.482;2022-10-15T10:59:13;1.00;;;0.90;;
32505;SDS011;18955;51.224;8.482;2022-10-15T11:01:48;3.53;;;1.13;;
32505;SDS011;18955;51.224;8.482;2022-10-15T11:04:34;1.02;;;0.93;;
32505;SDS011;18955;51.224;8.482;2022-10-15T11:12:51;1.00;;;1.00;;
32505;SDS011;18955;51.224;8.482;2022-10-15T11:18:25;4.40;;;1.00;;
32505;SDS011;18955;51.224;8.482;2022-10-15T11:21:24;1.63;;;1.10;;
32505;SDS011;18955;51.224;8.482;2022-10-15T11:24:28;1.45;;;1.30;;
32505;SDS011;18955;51.224;8.482;2022-10-15T11:35:52;4.32;;;1.30;;
32505;SDS011;18955;51.224;8.482;2022-10-15T11:41:16;3.65;;;1.70;;
32505;SDS011;18955;51.224;8.482;2022-10-15T11:49:12;4.40;;;2.00;;
32505;SDS011;18955;51.224;8.482;2022-10-15T11:54:38;1.63;;;1.52;;
32505;SDS011;18955;51.224;8.482;2022-10-15T11:57:15;2.25;;;1.35;;
32505;SDS011;18955;51.224;8.482;2022-10-15T12:02:28;3.97;;;1.17;;
32505;SDS011;18955;51.224;8.482;2022-10-15T12:05:04;2.05;;;1.50;;
32505;SDS011;18955;51.224;8.482;2022-10-15T12:07:46;1.20;;;1.10;;
32505;SDS011;18955;51.224;8.482;2022-10-15T12:15:26;0.93;;;0.93;;
32505;SDS011;18955;51.224;8.482;2022-10-15T12:20:59;1.45;;;1.35;;
32505;SDS011;18955;51.224;8.482;2022-10-15T12:23:38;1.92;;;1.08;;
32505;SDS011;18955;51.224;8.482;2022-10-15T12:28:50;3.75;;;1.20;;
32505;SDS011;18955;51.224;8.482;2022-10-15T12:31:19;1.60;;;0.80;;
32505;SDS011;18955;51.224;8.482;2022-10-15T12:33:49;2.22;;;0.80;;
32505;SDS011;18955;51.224;8.482;2022-10-15T12:39:20;0.95;;;0.90;;
32505;SDS011;18955;51.224;8.482;2022-10-15T12:41:47;1.02;;;0.82;;
32505;SDS011;18955;51.224;8.482;2022-10-15T12:46:48;1.77;;;0.65;;
32505;SDS011;18955;51.224;8.482;2022-10-15T12:51:58;0.40;;;0.40;;
32505;SDS011;18955;51.224;8.482;2022-10-15T12:54:39;0.50;;;0.50;;
32505;SDS011;18955;51.224;8.482;2022-10-15T12:57:50;1.88;;;0.50;;
32505;SDS011;18955;51.224;8.482;2022-10-15T12:59:57;0.82;;;0.68;;
32505;SDS011;18955;51.224;8.482;2022-10-15T13:02:32;4.68;;;0.50;;
32505;SDS011;18955;51.224;8.482;2022-10-15T13:05:02;2.72;;;0.70;;
32505;SDS011;18955;51.224;8.482;2022-10-15T13:07:31;2.20;;;0.50;;
32505;SDS011;18955;51.224;8.482;2022-10-15T13:09:59;0.70;;;0.60;;
32505;SDS011;18955;51.224;8.482;2022-10-15T13:12:28;1.90;;;0.40;;
32505;SDS011;18955;51.224;8.482;2022-10-15T13:14:55;0.77;;;0.77;;
32505;SDS011;18955;51.224;8.482;2022-10-15T13:17:28;2.83;;;0.43;;
32505;SDS011;18955;51.224;8.482;2022-10-15T13:22:32;0.32;;;0.32;;
32505;SDS011;18955;51.224;8.482;2022-10-15T13:25:00;1.65;;;0.50;;
32505;SDS011;18955;51.224;8.482;2022-10-15T13:27:31;1.55;;;0.60;;
32505;SDS011;18955;51.224;8.482;2022-10-15T13:29:59;0.60;;;0.55;;
32505;SDS011;18955;51.224;8.482;2022-10-15T13:32:29;0.60;;;0.60;;
32505;SDS011;18955;51.224;8.482;2022-10-15T13:34:58;2.40;;;0.40;;
32505;SDS011;18955;51.224;8.482;2022-10-15T13:37:28;1.05;;;0.60;;
32505;SDS011;18955;51.224;8.482;2022-10-15T13:39:57;1.08;;;0.57;;
32505;SDS011;18955;51.224;8.482;2022-10-15T13:42:24;0.82;;;0.47;;
32505;SDS011;18955;51.224;8.482;2022-10-15T13:44:56;0.98;;;0.70;;
32505;SDS011;18955;51.224;8.482;2022-10-15T13:47:30;0.57;;;0.57;;
32505;SDS011;18955;51.224;8.482;2022-10-15T13:52:46;0.50;;;0.50;;
32505;SDS011;18955;51.224;8.482;2022-10-15T13:55:17;3.13;;;0.60;;
32505;SDS011;18955;51.224;8.482;2022-10-15T13:57:49;5.82;;;0.57;;
32505;SDS011;18955;51.224;8.482;2022-10-15T14:00:18;3.47;;;0.75;;
32505;SDS011;18955;51.224;8.482;2022-10-15T14:05:41;2.80;;;0.52;;
32505;SDS011;18955;51.224;8.482;2022-10-15T14:08:13;2.58;;;0.57;;
32505;SDS011;18955;51.224;8.482;2022-10-15T14:10:45;2.33;;;0.80;;
32505;SDS011;18955;51.224;8.482;2022-10-15T14:13:12;19.23;;;9.52;;
32505;SDS011;18955;51.224;8.482;2022-10-15T14:18:07;24.83;;;14.25;;
32505;SDS011;18955;51.224;8.482;2022-10-15T14:20:35;3.85;;;3.05;;
32505;SDS011;18955;51.224;8.482;2022-10-15T14:23:01;4.80;;;1.80;;
32505;SDS011;18955;51.224;8.482;2022-10-15T14:25:27;5.70;;;1.83;;
32505;SDS011;18955;51.224;8.482;2022-10-15T14:27:54;1.90;;;1.10;;
32505;SDS011;18955;51.224;8.482;2022-10-15T14:30:30;6.35;;;3.05;;
32505;SDS011;18955;51.224;8.482;2022-10-15T14:32:58;1.40;;;1.10;;
32505;SDS011;18955;51.224;8.482;2022-10-15T14:38:03;0.75;;;0.55;;
32505;SDS011;18955;51.224;8.482;2022-10-15T14:40:39;0.60;;;0.50;;
32505;SDS011;18955;51.224;8.482;2022-10-15T14:43:06;0.40;;;0.40;;
32505;SDS011;18955;51.224;8.482;2022-10-15T14:48:18;7.78;;;0.63;;
32505;SDS011;18955;51.224;8.482;2022-10-15T14:50:48;1.95;;;0.50;;
32505;SDS011;18955;51.224;8.482;2022-10-15T14:53:19;0.60;;;0.40;;
32505;SDS011;18955;51.224;8.482;2022-10-15T14:55:49;1.85;;;0.55;;
32505;SDS011;18955;51.224;8.482;2022-10-15T14:58:19;2.00;;;0.50;;
32505;SDS011;18955;51.224;8.482;2022-10-15T15:00:56;4.78;;;0.45;;
32505;SDS011;18955;51.224;8.482;2022-10-15T15:03:27;2.97;;;0.60;;
32505;SDS011;18955;51.224;8.482;2022-10-15T15:05:56;0.30;;;0.30;;
32505;SDS011;18955;51.224;8.482;2022-10-15T15:08:23;3.28;;;0.60;;
32505;SDS011;18955;51.224;8.482;2022-10-15T15:10:50;1.85;;;0.55;;
32505;SDS011;18955;51.224;8.482;2022-10-15T15:13:23;0.98;;;0.52;;
32505;SDS011;18955;51.224;8.482;2022-10-15T15:15:51;1.35;;;0.50;;
32505;SDS011;18955;51.224;8.482;2022-10-15T15:18:18;3.90;;;0.60;;
32505;SDS011;18955;51.224;8.482;2022-10-15T15:20:45;1.55;;;0.43;;
32505;SDS011;18955;51.224;8.482;2022-10-15T15:23:23;1.35;;;0.43;;
32505;SDS011;18955;51.224;8.482;2022-10-15T15:25:52;0.40;;;0.40;;
32505;SDS011;18955;51.224;8.482;2022-10-15T15:28:21;0.73;;;0.50;;
32505;SDS011;18955;51.224;8.482;2022-10-15T15:30:56;1.65;;;0.50;;
32505;SDS011;18955;51.224;8.482;2022-10-15T15:33:24;0.50;;;0.40;;
32505;SDS011;18955;51.224;8.482;2022-10-15T15:35:53;0.95;;;0.50;;
32505;SDS011;18955;51.224;8.482;2022-10-15T15:38:25;1.90;;;0.50;;
32505;SDS011;18955;51.224;8.482;2022-10-15T15:40:59;2.67;;;0.60;;
32505;SDS011;18955;51.224;8.482;2022-10-15T15:43:35;5.20;;;0.60;;
32505;SDS011;18955;51.224;8.482;2022-10-15T15:46:01;1.27;;;0.70;;
32505;SDS011;18955;51.224;8.482;2022-10-15T15:48:28;0.55;;;0.55;;
32505;SDS011;18955;51.224;8.482;2022-10-15T15:50:55;2.55;;;0.50;;
32505;SDS011;18955;51.224;8.482;2022-10-15T15:53:26;0.82;;;0.60;;
32505;SDS011;18955;51.224;8.482;2022-10-15T15:55:55;0.45;;;0.45;;
32505;SDS011;18955;51.224;8.482;2022-10-15T16:00:48;1.50;;;0.57;;
32505;SDS011;18955;51.224;8.482;2022-10-15T16:03:14;1.10;;;0.45;;
32505;SDS011;18955;51.224;8.482;2022-10-15T16:05:40;2.05;;;0.40;;
32505;SDS011;18955;51.224;8.482;2022-10-15T16:08:07;2.70;;;0.60;;
32505;SDS011;18955;51.224;8.482;2022-10-15T16:10:35;6.35;;;0.60;;
32505;SDS011;18955;51.224;8.482;2022-10-15T16:13:01;4.55;;;0.80;;
32505;SDS011;18955;51.224;8.482;2022-10-15T16:15:27;1.95;;;0.60;;
32505;SDS011;18955;51.224;8.482;2022-10-15T16:17:54;2.13;;;0.38;;
32505;SDS011;18955;51.224;8.482;2022-10-15T16:20:20;4.70;;;0.77;;
32505;SDS011;18955;51.224;8.482;2022-10-15T16:25:16;2.90;;;0.45;;
32505;SDS011;18955;51.224;8.482;2022-10-15T16:27:43;1.33;;;0.50;;
32505;SDS011;18955;51.224;8.482;2022-10-15T16:30:16;7.05;;;0.93;;
32505;SDS011;18955;51.224;8.482;2022-10-15T16:32:44;0.30;;;0.30;;
32505;SDS011;18955;51.224;8.482;2022-10-15T16:37:36;4.50;;;0.68;;
32505;SDS011;18955;51.224;8.482;2022-10-15T16:40:02;5.10;;;0.75;;
32505;SDS011;18955;51.224;8.482;2022-10-15T16:42:29;3.72;;;0.63;;
32505;SDS011;18955;51.224;8.482;2022-10-15T16:47:22;3.60;;;0.63;;
32505;SDS011;18955;51.224;8.482;2022-10-15T16:49:48;1.98;;;0.50;;
32505;SDS011;18955;51.224;8.482;2022-10-15T16:52:14;5.90;;;0.50;;
32505;SDS011;18955;51.224;8.482;2022-10-15T16:54:40;1.25;;;0.40;;
32505;SDS011;18955;51.224;8.482;2022-10-15T16:57:07;2.60;;;0.40;;
32505;SDS011;18955;51.224;8.482;2022-10-15T16:59:33;4.15;;;0.50;;
32505;SDS011;18955;51.224;8.482;2022-10-15T17:01:59;8.70;;;1.08;;
32505;SDS011;18955;51.224;8.482;2022-10-15T17:04:26;2.72;;;0.70;;
32505;SDS011;18955;51.224;8.482;2022-10-15T17:06:52;10.40;;;0.90;;
32505;SDS011;18955;51.224;8.482;2022-10-15T17:09:18;2.78;;;0.95;;
32505;SDS011;18955;51.224;8.482;2022-10-15T17:11:44;4.88;;;0.63;;
32505;SDS011;18955;51.224;8.482;2022-10-15T17:14:12;6.75;;;0.68;;
32505;SDS011;18955;51.224;8.482;2022-10-15T17:16:41;3.28;;;0.70;;
32505;SDS011;18955;51.224;8.482;2022-10-15T17:19:09;1.70;;;0.60;;
32505;SDS011;18955;51.224;8.482;2022-10-15T17:21:36;1.35;;;0.68;;
32505;SDS011;18955;51.224;8.482;2022-10-15T17:26:32;4.60;;;0.47;;
32505;SDS011;18955;51.224;8.482;2022-10-15T17:29:07;3.97;;;0.65;;
32505;SDS011;18955;51.224;8.482;2022-10-15T17:31:35;0.63;;;0.50;;
32505;SDS011;18955;51.224;8.482;2022-10-15T17:34:03;0.35;;;0.35;;
32505;SDS011;18955;51.224;8.482;2022-10-15T17:36:31;2.03;;;0.60;;
32505;SDS011;18955;51.224;8.482;2022-10-15T17:39:02;1.90;;;0.60;;
32505;SDS011;18955;51.224;8.482;2022-10-15T17:41:29;7.07;;;0.60;;
32505;SDS011;18955;51.224;8.482;2022-10-15T17:43:56;1.75;;;0.50;;
32505;SDS011;18955;51.224;8.482;2022-10-15T17:46:23;5.03;;;0.50;;
32505;SDS011;18955;51.224;8.482;2022-10-15T17:48:52;3.38;;;0.68;;
32505;SDS011;18955;51.224;8.482;2022-10-15T17:51:20;2.25;;;0.50;;
32505;SDS011;18955;51.224;8.482;2022-10-15T17:53:53;1.65;;;0.60;;
32505;SDS011;18955;51.224;8.482;2022-10-15T17:56:23;0.45;;;0.45;;
32505;SDS011;18955;51.224;8.482;2022-10-15T17:58:55;4.97;;;1.05;;
32505;SDS011;18955;51.224;8.482;2022-10-15T18:01:25;0.52;;;0.47;;
32505;SDS011;18955;51.224;8.482;2022-10-15T18:03:53;0.57;;;0.57;;
32505;SDS011;18955;51.224;8.482;2022-10-15T18:06:24;2.30;;;0.75;;
32505;SDS011;18955;51.224;8.482;2022-10-15T18:08:51;1.80;;;0.60;;
32505;SDS011;18955;51.224;8.482;2022-10-15T18:11:19;3.70;;;0.90;;
32505;SDS011;18955;51.224;8.482;2022-10-15T18:13:48;4.50;;;0.82;;
32505;SDS011;18955;51.224;8.482;2022-10-15T18:16:15;6.03;;;0.80;;
32505;SDS011;18955;51.224;8.482;2022-10-15T18:18:42;2.13;;;0.70;;
32505;SDS011;18955;51.224;8.482;2022-10-15T18:21:09;6.50;;;1.27;;
32505;SDS011;18955;51.224;8.482;2022-10-15T18:23:37;6.15;;;1.10;;
32505;SDS011;18955;51.224;8.482;2022-10-15T18:28:29;7.57;;;1.13;;
32505;SDS011;18955;51.224;8.482;2022-10-15T18:30:56;6.05;;;1.58;;
32505;SDS011;18955;51.224;8.482;2022-10-15T18:33:27;1.83;;;1.42;;
32505;SDS011;18955;51.224;8.482;2022-10-15T18:38:20;3.53;;;1.30;;
32505;SDS011;18955;51.224;8.482;2022-10-15T18:40:46;3.20;;;1.60;;
32505;SDS011;18955;51.224;8.482;2022-10-15T18:43:12;1.40;;;1.25;;
32505;SDS011;18955;51.224;8.482;2022-10-15T18:45:38;9.10;;;1.30;;
32505;SDS011;18955;51.224;8.482;2022-10-15T18:48:05;2.28;;;1.08;;
32505;SDS011;18955;51.224;8.482;2022-10-15T18:50:31;4.00;;;1.73;;
32505;SDS011;18955;51.224;8.482;2022-10-15T18:52:57;3.00;;;1.20;;
32505;SDS011;18955;51.224;8.482;2022-10-15T18:55:23;1.60;;;1.27;;
32505;SDS011;18955;51.224;8.482;2022-10-15T18:57:49;3.75;;;1.45;;
32505;SDS011;18955;51.224;8.482;2022-10-15T19:00:16;2.42;;;1.00;;
32505;SDS011;18955;51.224;8.482;2022-10-15T19:02:42;0.85;;;0.85;;
32505;SDS011;18955;51.224;8.482;2022-10-15T19:05:08;6.80;;;1.42;;
32505;SDS011;18955;51.224;8.482;2022-10-15T19:07:35;3.08;;;2.88;;
32505;SDS011;18955;51.224;8.482;2022-10-15T19:10:01;9.02;;;3.92;;
32505;SDS011;18955;51.224;8.482;2022-10-15T19:12:27;6.05;;;4.72;;
32505;SDS011;18955;51.224;8.482;2022-10-15T19:14:53;4.63;;;3.53;;
32505;SDS011;18955;51.224;8.482;2022-10-15T19:17:19;6.10;;;4.60;;
32505;SDS011;18955;51.224;8.482;2022-10-15T19:19:46;3.00;;;2.50;;
32505;SDS011;18955;51.224;8.482;2022-10-15T19:22:15;6.78;;;3.97;;
32505;SDS011;18955;51.224;8.482;2022-10-15T19:24:42;7.82;;;3.03;;
32505;SDS011;18955;51.224;8.482;2022-10-15T19:27:08;8.00;;;5.45;;
32505;SDS011;18955;51.224;8.482;2022-10-15T19:29:36;5.97;;;5.38;;
32505;SDS011;18955;51.224;8.482;2022-10-15T19:32:03;6.75;;;6.03;;
32505;SDS011;18955;51.224;8.482;2022-10-15T19:34:30;7.70;;;6.93;;
32505;SDS011;18955;51.224;8.482;2022-10-15T19:36:59;8.10;;;6.55;;
32505;SDS011;18955;51.224;8.482;2022-10-15T19:39:27;8.35;;;6.38;;
32505;SDS011;18955;51.224;8.482;2022-10-15T19:41:53;8.32;;;6.22;;
32505;SDS011;18955;51.224;8.482;2022-10-15T19:44:20;6.97;;;6.25;;
32505;SDS011;18955;51.224;8.482;2022-10-15T19:46:49;5.25;;;4.35;;
32505;SDS011;18955;51.224;8.482;2022-10-15T19:51:44;10.63;;;5.80;;
32505;SDS011;18955;51.224;8.482;2022-10-15T19:54:11;9.68;;;6.00;;
32505;SDS011;18955;51.224;8.482;2022-10-15T19:56:37;7.75;;;5.07;;
32505;SDS011;18955;51.224;8.482;2022-10-15T19:59:04;4.50;;;3.97;;
32505;SDS011;18955;51.224;8.482;2022-10-15T20:01:31;5.20;;;4.53;;
32505;SDS011;18955;51.224;8.482;2022-10-15T20:03:58;5.15;;;4.50;;
32505;SDS011;18955;51.224;8.482;2022-10-15T20:06:25;6.47;;;4.63;;
32505;SDS011;18955;51.224;8.482;2022-10-15T20:08:51;5.45;;;4.20;;
32505;SDS011;18955;51.224;8.482;2022-10-15T20:11:18;7.97;;;3.95;;
32505;SDS011;18955;51.224;8.482;2022-10-15T20:13:44;10.90;;;4.32;;
32505;SDS011;18955;51.224;8.482;2022-10-15T20:18:40;6.85;;;4.45;;
32505;SDS011;18955;51.224;8.482;2022-10-15T20:21:11;10.20;;;4.00;;
32505;SDS011;18955;51.224;8.482;2022-10-15T20:23:39;6.45;;;3.85;;
32505;SDS011;18955;51.224;8.482;2022-10-15T20:26:07;5.80;;;3.95;;
32505;SDS011;18955;51.224;8.482;2022-10-15T20:28:35;9.07;;;4.32;;
32505;SDS011;18955;51.224;8.482;2022-10-15T20:31:04;6.40;;;4.22;;
32505;SDS011;18955;51.224;8.482;2022-10-15T20:33:34;7.82;;;4.57;;
32505;SDS011;18955;51.224;8.482;2022-10-15T20:36:11;9.50;;;3.83;;
32505;SDS011;18955;51.224;8.482;2022-10-15T20:38:39;14.35;;;4.25;;
32505;SDS011;18955;51.224;8.482;2022-10-15T20:41:10;28.58;;;3.78;;
32505;SDS011;18955;51.224;8.482;2022-10-15T20:43:38;8.80;;;4.00;;
32505;SDS011;18955;51.224;8.482;2022-10-15T20:46:09;4.43;;;4.03;;
32505;SDS011;18955;51.224;8.482;2022-10-15T20:48:38;7.70;;;4.10;;
32505;SDS011;18955;51.224;8.482;2022-10-15T20:51:06;5.50;;;4.18;;
32505;SDS011;18955;51.224;8.482;2022-10-15T20:53:34;7.28;;;3.95;;
32505;SDS011;18955;51.224;8.482;2022-10-15T20:56:00;5.10;;;3.78;;
32505;SDS011;18955;51.224;8.482;2022-10-15T20:58:27;9.43;;;3.83;;
32505;SDS011;18955;51.224;8.482;2022-10-15T21:00:53;6.15;;;3.75;;
32505;SDS011;18955;51.224;8.482;2022-10-15T21:03:19;8.05;;;3.17;;
32505;SDS011;18955;51.224;8.482;2022-10-15T21:05:46;5.15;;;3.97;;
32505;SDS011;18955;51.224;8.482;2022-10-15T21:08:12;8.55;;;4.32;;
32505;SDS011;18955;51.224;8.482;2022-10-15T21:10:38;5.97;;;3.65;;
32505;SDS011;18955;51.224;8.482;2022-10-15T21:13:05;11.82;;;3.67;;
32505;SDS011;18955;51.224;8.482;2022-10-15T21:15:31;5.43;;;2.92;;
32505;SDS011;18955;51.224;8.482;2022-10-15T21:17:57;1.98;;;1.83;;
32505;SDS011;18955;51.224;8.482;2022-10-15T21:20:24;8.90;;;4.05;;
32505;SDS011;18955;51.224;8.482;2022-10-15T21:22:51;4.07;;;3.22;;
32505;SDS011;18955;51.224;8.482;2022-10-15T21:25:17;3.70;;;3.28;;
32505;SDS011;18955;51.224;8.482;2022-10-15T21:27:44;6.85;;;3.13;;
32505;SDS011;18955;51.224;8.482;2022-10-15T21:30:10;8.88;;;3.97;;
32505;SDS011;18955;51.224;8.482;2022-10-15T21:32:36;3.92;;;2.83;;
32505;SDS011;18955;51.224;8.482;2022-10-15T21:35:03;3.70;;;1.92;;
32505;SDS011;18955;51.224;8.482;2022-10-15T21:37:33;4.28;;;3.30;;
32505;SDS011;18955;51.224;8.482;2022-10-15T21:40:01;9.10;;;3.25;;